Taxila Weather



Taxila's Current Weather

Temprature 24.44o broken clouds

broken clouds

Rain: 0 %

Min Temprature24.44o
Max Temprature24.44o
Humidity71
Wind Speed0.67 m/h
Sun Rise05:59:16
Sun Set18:01:10
Current Time: 26-Sep-2022 07:48:30
Lat/Lon: 33.7476, 72.8075




Taxila's Geo Location



Taxila's Weather Forecast

Time Overall Temp Min Temp Max Temp Humidity Wind Speed Rain
26-Sep-2022 (Mon)
08:00:00 light rain 24.440 23.450 24.440 71 0.67 m/h 50 %
11:00:00 broken clouds 25.400 25.400 27.330 65 1.62 m/h 0 %
14:00:00 few clouds 27.890 27.890 29.620 55 2.37 m/h 0 %
17:00:00 clear sky 28.930 28.930 28.930 54 1.6 m/h 0 %
20:00:00 clear sky 25.400 25.400 25.400 63 1.08 m/h 0 %
23:00:00 clear sky 24.050 24.050 24.050 67 1.67 m/h 0 %
27-Sep-2022 (Tue)
02:00:00 clear sky 23.270 23.270 23.270 67 1.55 m/h 0 %
05:00:00 clear sky 22.750 22.750 22.750 68 1.95 m/h 0 %
08:00:00 clear sky 25.470 25.470 25.470 59 1.27 m/h 0 %
11:00:00 clear sky 29.050 29.050 29.050 50 1.33 m/h 0 %
14:00:00 clear sky 31.020 31.020 31.020 43 1.36 m/h 0 %
17:00:00 clear sky 30.750 30.750 30.750 48 0.32 m/h 0 %
20:00:00 clear sky 26.580 26.580 26.580 56 2.15 m/h 0 %
23:00:00 clear sky 25.220 25.220 25.220 61 2.92 m/h 0 %
28-Sep-2022 (Wed)
02:00:00 clear sky 24.260 24.260 24.260 64 2.45 m/h 0 %
05:00:00 clear sky 23.540 23.540 23.540 65 2.43 m/h 0 %
08:00:00 clear sky 25.820 25.820 25.820 60 2.07 m/h 0 %
11:00:00 clear sky 29.770 29.770 29.770 49 1.99 m/h 0 %
14:00:00 clear sky 31.590 31.590 31.590 41 1.51 m/h 0 %
17:00:00 clear sky 31.280 31.280 31.280 47 0.5 m/h 0 %
20:00:00 few clouds 27.150 27.150 27.150 53 2.46 m/h 0 %
23:00:00 clear sky 25.730 25.730 25.730 58 2.77 m/h 0 %
29-Sep-2022 (Thu)
02:00:00 light rain 24.230 24.230 24.230 62 2.16 m/h 33 %
05:00:00 light rain 22.470 22.470 22.470 67 0.71 m/h 63 %
08:00:00 light rain 24.580 24.580 24.580 60 1.26 m/h 165 %
11:00:00 light rain 29.060 29.060 29.060 46 0.67 m/h 25 %
14:00:00 clear sky 31.450 31.450 31.450 40 1.3 m/h 0 %
17:00:00 clear sky 30.880 30.880 30.880 47 1.18 m/h 0 %
20:00:00 clear sky 26.630 26.630 26.630 54 2.18 m/h 0 %
23:00:00 clear sky 25.410 25.410 25.410 57 2.63 m/h 0 %
30-Sep-2022 (Fri)
02:00:00 clear sky 24.330 24.330 24.330 58 2.07 m/h 0 %
05:00:00 clear sky 23.430 23.430 23.430 58 0.59 m/h 0 %
08:00:00 few clouds 25.880 25.880 25.880 53 1.56 m/h 0 %
11:00:00 clear sky 30.230 30.230 30.230 42 0.63 m/h 0 %
14:00:00 clear sky 32.300 32.300 32.300 36 1.7 m/h 0 %
17:00:00 clear sky 31.480 31.480 31.480 43 0.55 m/h 0 %
20:00:00 clear sky 27.160 27.160 27.160 49 2.36 m/h 0 %
23:00:00 clear sky 25.790 25.790 25.790 53 2.48 m/h 0 %
01-Oct-2022 (Sat)
02:00:00 few clouds 24.930 24.930 24.930 54 1.93 m/h 0 %
05:00:00 scattered clouds 25.250 25.250 25.250 52 0.94 m/h 0 %

Famous Cities (61)